Capitol Logistics 312


KSEA
Seattle-Tacoma International Airport
Seattle, Washington, US
KIAD
Washington Dulles International Airport
Dulles, Virginia, US

Route Details

Aircraft Information
Primary: Boeing 767-300BDSF
Backup: Not Available
Route Data
Distance: 20001nm
Sched. Duration: 5h 00m
Avg. Duration: 4h 56m (-44m)
Times Flown: 4
Recm'd Route: SEA NORMY J90 MWH HLN DPR MCW DBQ JOT J30 APE AIR J162 MGW GIBBZ2
Planned Altitude: 33,000ft
Origin Wx: KSEA 221453Z 02012KT 10SM SCT055 OVC070 05/M01 A3001 RMK AO2 SLP172 T00501011 55003
Dest. Wx: KIAD 221452Z 00000KT 10SM SCT060 SCT250 06/M03 A2982 RMK AO2 SLP098 T00611028 53019
Notes:

Financial History
Total Freight: 373,064lbs
Average Load: 93,266lbs/flt
Fuel Used: 196,945lbs
Avg. Fuel Used: 49,236lbs/flt
Fuel Expense: $220,578
Avg. Fuel Expense: $55,145
Avg. Fuel Cost: $1.12/lbs
Total Gross Income: $507,329
Pilot Pay: $1,006
Total Expenses: $54,999
Total Revenue: $227,029
Average Revenue: $126,832.15